sensor_id;sensor_type;location;lat;lon;timestamp;pressure;altitude;pressure_sealevel;temperature
11849;BMP180;5983;49.966;8.052;2023-08-01T00:01:55;99267.00;;;17.90
11849;BMP180;5983;49.966;8.052;2023-08-01T00:04:22;99252.00;;;17.90
11849;BMP180;5983;49.966;8.052;2023-08-01T00:06:49;99251.00;;;17.90
11849;BMP180;5983;49.966;8.052;2023-08-01T00:09:17;99245.00;;;18.00
11849;BMP180;5983;49.966;8.052;2023-08-01T00:11:44;99243.00;;;18.00
11849;BMP180;5983;49.966;8.052;2023-08-01T00:14:10;99235.00;;;18.00
11849;BMP180;5983;49.966;8.052;2023-08-01T00:16:37;99236.00;;;18.00
11849;BMP180;5983;49.966;8.052;2023-08-01T00:19:04;99222.00;;;18.10
11849;BMP180;5983;49.966;8.052;2023-08-01T00:21:30;99218.00;;;18.10
11849;BMP180;5983;49.966;8.052;2023-08-01T00:23:57;99209.00;;;18.10
11849;BMP180;5983;49.966;8.052;2023-08-01T00:26:25;99203.00;;;18.10
11849;BMP180;5983;49.966;8.052;2023-08-01T00:28:52;99205.00;;;18.10
11849;BMP180;5983;49.966;8.052;2023-08-01T00:31:19;99207.00;;;18.10
11849;BMP180;5983;49.966;8.052;2023-08-01T00:33:46;99201.00;;;18.10
11849;BMP180;5983;49.966;8.052;2023-08-01T00:36:12;99184.00;;;18.10
11849;BMP180;5983;49.966;8.052;2023-08-01T00:38:39;99195.00;;;18.10
11849;BMP180;5983;49.966;8.052;2023-08-01T00:41:08;99197.00;;;18.10
11849;BMP180;5983;49.966;8.052;2023-08-01T00:43:36;99202.00;;;18.10
11849;BMP180;5983;49.966;8.052;2023-08-01T00:46:05;99179.00;;;18.10
11849;BMP180;5983;49.966;8.052;2023-08-01T00:48:32;99187.00;;;18.10
11849;BMP180;5983;49.966;8.052;2023-08-01T00:51:01;99190.00;;;18.00
11849;BMP180;5983;49.966;8.052;2023-08-01T00:53:30;99179.00;;;18.10
11849;BMP180;5983;49.966;8.052;2023-08-01T00:55:58;99172.00;;;18.10
11849;BMP180;5983;49.966;8.052;2023-08-01T00:58:25;99171.00;;;18.10
11849;BMP180;5983;49.966;8.052;2023-08-01T01:00:53;99153.00;;;18.10
11849;BMP180;5983;49.966;8.052;2023-08-01T01:03:21;99148.00;;;18.10
11849;BMP180;5983;49.966;8.052;2023-08-01T01:05:52;99143.00;;;18.10
11849;BMP180;5983;49.966;8.052;2023-08-01T01:08:19;99122.00;;;18.10
11849;BMP180;5983;49.966;8.052;2023-08-01T01:10:46;99117.00;;;18.10
11849;BMP180;5983;49.966;8.052;2023-08-01T01:13:13;99132.00;;;18.10
11849;BMP180;5983;49.966;8.052;2023-08-01T01:15:40;99129.00;;;18.10
11849;BMP180;5983;49.966;8.052;2023-08-01T01:18:08;99126.00;;;18.10
11849;BMP180;5983;49.966;8.052;2023-08-01T01:20:36;99117.00;;;18.10
11849;BMP180;5983;49.966;8.052;2023-08-01T01:23:04;99111.00;;;18.10
11849;BMP180;5983;49.966;8.052;2023-08-01T01:25:32;99100.00;;;18.10
11849;BMP180;5983;49.966;8.052;2023-08-01T01:28:00;99080.00;;;18.10
11849;BMP180;5983;49.966;8.052;2023-08-01T01:30:31;99069.00;;;18.10
11849;BMP180;5983;49.966;8.052;2023-08-01T01:32:59;99072.00;;;18.00
11849;BMP180;5983;49.966;8.052;2023-08-01T01:35:26;99039.00;;;18.00
11849;BMP180;5983;49.966;8.052;2023-08-01T01:37:54;99012.00;;;18.00
11849;BMP180;5983;49.966;8.052;2023-08-01T01:40:24;99024.00;;;18.10
11849;BMP180;5983;49.966;8.052;2023-08-01T01:42:50;99049.00;;;18.10
11849;BMP180;5983;49.966;8.052;2023-08-01T01:45:17;99063.00;;;18.00
11849;BMP180;5983;49.966;8.052;2023-08-01T01:47:44;99067.00;;;18.10
11849;BMP180;5983;49.966;8.052;2023-08-01T01:50:11;99070.00;;;18.10
11849;BMP180;5983;49.966;8.052;2023-08-01T01:52:37;99068.00;;;18.10
11849;BMP180;5983;49.966;8.052;2023-08-01T01:55:06;99059.00;;;18.10
11849;BMP180;5983;49.966;8.052;2023-08-01T01:57:33;99047.00;;;18.10
11849;BMP180;5983;49.966;8.052;2023-08-01T02:00:01;99035.00;;;18.20
11849;BMP180;5983;49.966;8.052;2023-08-01T02:02:28;99032.00;;;18.20
11849;BMP180;5983;49.966;8.052;2023-08-01T02:04:55;99056.00;;;18.20
11849;BMP180;5983;49.966;8.052;2023-08-01T02:07:22;99050.00;;;18.20
11849;BMP180;5983;49.966;8.052;2023-08-01T02:09:49;99034.00;;;18.30
11849;BMP180;5983;49.966;8.052;2023-08-01T02:12:17;99007.00;;;18.20
11849;BMP180;5983;49.966;8.052;2023-08-01T02:14:44;98995.00;;;18.30
11849;BMP180;5983;49.966;8.052;2023-08-01T02:17:11;98983.00;;;18.20
11849;BMP180;5983;49.966;8.052;2023-08-01T02:19:37;98987.00;;;18.30
11849;BMP180;5983;49.966;8.052;2023-08-01T02:22:04;98994.00;;;18.20
11849;BMP180;5983;49.966;8.052;2023-08-01T02:24:31;98986.00;;;18.30
11849;BMP180;5983;49.966;8.052;2023-08-01T02:26:58;98995.00;;;18.20
11849;BMP180;5983;49.966;8.052;2023-08-01T02:29:26;99000.00;;;18.20
11849;BMP180;5983;49.966;8.052;2023-08-01T02:31:53;98995.00;;;18.20
11849;BMP180;5983;49.966;8.052;2023-08-01T02:34:20;98983.00;;;18.20
11849;BMP180;5983;49.966;8.052;2023-08-01T02:36:47;98986.00;;;18.20
11849;BMP180;5983;49.966;8.052;2023-08-01T02:39:14;98985.00;;;18.20
11849;BMP180;5983;49.966;8.052;2023-08-01T02:41:40;98980.00;;;18.20
11849;BMP180;5983;49.966;8.052;2023-08-01T02:44:07;98983.00;;;18.20
11849;BMP180;5983;49.966;8.052;2023-08-01T02:46:35;98978.00;;;18.20
11849;BMP180;5983;49.966;8.052;2023-08-01T02:49:02;98976.00;;;18.20
11849;BMP180;5983;49.966;8.052;2023-08-01T02:51:29;98979.00;;;18.20
11849;BMP180;5983;49.966;8.052;2023-08-01T02:53:56;98986.00;;;18.20
11849;BMP180;5983;49.966;8.052;2023-08-01T02:56:23;98983.00;;;18.20
11849;BMP180;5983;49.966;8.052;2023-08-01T02:58:49;98994.00;;;18.30
11849;BMP180;5983;49.966;8.052;2023-08-01T03:01:17;98996.00;;;18.30
11849;BMP180;5983;49.966;8.052;2023-08-01T03:03:45;98998.00;;;18.30
11849;BMP180;5983;49.966;8.052;2023-08-01T03:06:12;99004.00;;;18.30
11849;BMP180;5983;49.966;8.052;2023-08-01T03:08:39;98996.00;;;18.20
11849;BMP180;5983;49.966;8.052;2023-08-01T03:11:06;98995.00;;;18.30
11849;BMP180;5983;49.966;8.052;2023-08-01T03:13:33;98987.00;;;18.20
11849;BMP180;5983;49.966;8.052;2023-08-01T03:16:00;98993.00;;;18.20
11849;BMP180;5983;49.966;8.052;2023-08-01T03:18:26;98997.00;;;18.20
11849;BMP180;5983;49.966;8.052;2023-08-01T03:20:54;98975.00;;;18.20
11849;BMP180;5983;49.966;8.052;2023-08-01T03:23:21;98968.00;;;18.20
11849;BMP180;5983;49.966;8.052;2023-08-01T03:25:48;98950.00;;;18.20
11849;BMP180;5983;49.966;8.052;2023-08-01T03:28:15;98968.00;;;18.10
11849;BMP180;5983;49.966;8.052;2023-08-01T03:30:42;99003.00;;;18.10
11849;BMP180;5983;49.966;8.052;2023-08-01T03:33:08;98994.00;;;18.20
11849;BMP180;5983;49.966;8.052;2023-08-01T03:35:35;98967.00;;;18.10
11849;BMP180;5983;49.966;8.052;2023-08-01T03:38:03;98968.00;;;18.10
11849;BMP180;5983;49.966;8.052;2023-08-01T03:40:30;98971.00;;;18.10
11849;BMP180;5983;49.966;8.052;2023-08-01T03:42:57;98969.00;;;18.10
11849;BMP180;5983;49.966;8.052;2023-08-01T03:45:24;98968.00;;;18.10
11849;BMP180;5983;49.966;8.052;2023-08-01T03:47:51;98972.00;;;18.10
11849;BMP180;5983;49.966;8.052;2023-08-01T03:50:18;98972.00;;;18.10
11849;BMP180;5983;49.966;8.052;2023-08-01T03:52:44;98975.00;;;18.10
11849;BMP180;5983;49.966;8.052;2023-08-01T03:55:13;98957.00;;;18.10
11849;BMP180;5983;49.966;8.052;2023-08-01T03:57:40;98960.00;;;18.10
11849;BMP180;5983;49.966;8.052;2023-08-01T04:00:09;98945.00;;;18.10
11849;BMP180;5983;49.966;8.052;2023-08-01T04:02:39;98947.00;;;18.10
11849;BMP180;5983;49.966;8.052;2023-08-01T04:05:07;98940.00;;;18.10
11849;BMP180;5983;49.966;8.052;2023-08-01T04:07:34;98944.00;;;18.10
11849;BMP180;5983;49.966;8.052;2023-08-01T04:10:01;98933.00;;;18.10
11849;BMP180;5983;49.966;8.052;2023-08-01T04:12:29;98937.00;;;18.10
11849;BMP180;5983;49.966;8.052;2023-08-01T04:14:56;98951.00;;;18.10
11849;BMP180;5983;49.966;8.052;2023-08-01T04:17:23;98943.00;;;18.10
11849;BMP180;5983;49.966;8.052;2023-08-01T04:19:49;98941.00;;;18.10
11849;BMP180;5983;49.966;8.052;2023-08-01T04:22:16;98950.00;;;18.10
11849;BMP180;5983;49.966;8.052;2023-08-01T04:24:43;98927.00;;;18.10
11849;BMP180;5983;49.966;8.052;2023-08-01T04:27:10;98940.00;;;18.10
11849;BMP180;5983;49.966;8.052;2023-08-01T04:29:38;98928.00;;;18.10
11849;BMP180;5983;49.966;8.052;2023-08-01T04:32:06;98928.00;;;18.00
11849;BMP180;5983;49.966;8.052;2023-08-01T04:34:33;98931.00;;;18.00
11849;BMP180;5983;49.966;8.052;2023-08-01T04:36:59;98937.00;;;18.00
11849;BMP180;5983;49.966;8.052;2023-08-01T04:39:26;98928.00;;;18.00
11849;BMP180;5983;49.966;8.052;2023-08-01T04:41:53;98900.00;;;18.00
11849;BMP180;5983;49.966;8.052;2023-08-01T04:44:20;98885.00;;;18.00
11849;BMP180;5983;49.966;8.052;2023-08-01T04:46:48;98850.00;;;18.00
11849;BMP180;5983;49.966;8.052;2023-08-01T04:49:15;98847.00;;;17.90
11849;BMP180;5983;49.966;8.052;2023-08-01T04:51:42;98860.00;;;17.90
11849;BMP180;5983;49.966;8.052;2023-08-01T04:54:08;98882.00;;;17.90
11849;BMP180;5983;49.966;8.052;2023-08-01T04:56:35;98888.00;;;17.90
11849;BMP180;5983;49.966;8.052;2023-08-01T04:59:02;98874.00;;;17.90
11849;BMP180;5983;49.966;8.052;2023-08-01T05:01:29;98879.00;;;17.90
11849;BMP180;5983;49.966;8.052;2023-08-01T05:03:57;98896.00;;;17.90
11849;BMP180;5983;49.966;8.052;2023-08-01T05:06:24;98900.00;;;17.90
11849;BMP180;5983;49.966;8.052;2023-08-01T05:08:50;98906.00;;;17.90
11849;BMP180;5983;49.966;8.052;2023-08-01T05:11:17;98906.00;;;17.90
11849;BMP180;5983;49.966;8.052;2023-08-01T05:13:44;98902.00;;;17.90
11849;BMP180;5983;49.966;8.052;2023-08-01T05:16:11;98906.00;;;17.90
11849;BMP180;5983;49.966;8.052;2023-08-01T05:18:37;98899.00;;;17.90
11849;BMP180;5983;49.966;8.052;2023-08-01T05:21:06;98921.00;;;17.90
11849;BMP180;5983;49.966;8.052;2023-08-01T05:23:32;98915.00;;;17.90
11849;BMP180;5983;49.966;8.052;2023-08-01T05:25:59;98921.00;;;17.90
11849;BMP180;5983;49.966;8.052;2023-08-01T05:28:26;98928.00;;;17.90
11849;BMP180;5983;49.966;8.052;2023-08-01T05:30:53;98921.00;;;17.90
11849;BMP180;5983;49.966;8.052;2023-08-01T05:33:22;98922.00;;;17.90
11849;BMP180;5983;49.966;8.052;2023-08-01T05:36:27;98897.00;;;17.90
11849;BMP180;5983;49.966;8.052;2023-08-01T05:38:53;98888.00;;;17.90
11849;BMP180;5983;49.966;8.052;2023-08-01T05:41:20;98871.00;;;17.80
11849;BMP180;5983;49.966;8.052;2023-08-01T05:43:47;98901.00;;;17.90
11849;BMP180;5983;49.966;8.052;2023-08-01T05:46:14;98893.00;;;17.90
11849;BMP180;5983;49.966;8.052;2023-08-01T05:48:41;98917.00;;;17.90
11849;BMP180;5983;49.966;8.052;2023-08-01T05:51:08;98919.00;;;17.90
11849;BMP180;5983;49.966;8.052;2023-08-01T05:53:36;98919.00;;;17.90
11849;BMP180;5983;49.966;8.052;2023-08-01T05:56:03;98927.00;;;17.90
11849;BMP180;5983;49.966;8.052;2023-08-01T05:58:30;98930.00;;;17.90
11849;BMP180;5983;49.966;8.052;2023-08-01T06:00:57;98927.00;;;17.90
11849;BMP180;5983;49.966;8.052;2023-08-01T06:03:24;98935.00;;;18.00
11849;BMP180;5983;49.966;8.052;2023-08-01T06:05:51;98935.00;;;17.90
11849;BMP180;5983;49.966;8.052;2023-08-01T06:08:18;98942.00;;;17.90
11849;BMP180;5983;49.966;8.052;2023-08-01T06:10:46;98950.00;;;17.90
11849;BMP180;5983;49.966;8.052;2023-08-01T06:13:13;98952.00;;;17.90
11849;BMP180;5983;49.966;8.052;2023-08-01T06:15:39;98950.00;;;17.90
11849;BMP180;5983;49.966;8.052;2023-08-01T06:18:06;98956.00;;;17.90
11849;BMP180;5983;49.966;8.052;2023-08-01T06:20:33;98962.00;;;17.90
11849;BMP180;5983;49.966;8.052;2023-08-01T06:23:00;98964.00;;;17.90
11849;BMP180;5983;49.966;8.052;2023-08-01T06:25:26;98971.00;;;17.90
11849;BMP180;5983;49.966;8.052;2023-08-01T06:27:54;98977.00;;;17.90
11849;BMP180;5983;49.966;8.052;2023-08-01T06:30:21;98986.00;;;17.90
11849;BMP180;5983;49.966;8.052;2023-08-01T06:32:48;98985.00;;;18.00
11849;BMP180;5983;49.966;8.052;2023-08-01T06:35:15;98988.00;;;18.00
11849;BMP180;5983;49.966;8.052;2023-08-01T06:37:42;99003.00;;;18.10
11849;BMP180;5983;49.966;8.052;2023-08-01T06:40:09;99001.00;;;18.10
11849;BMP180;5983;49.966;8.052;2023-08-01T06:42:36;99000.00;;;18.20
11849;BMP180;5983;49.966;8.052;2023-08-01T06:45:06;99007.00;;;18.30
11849;BMP180;5983;49.966;8.052;2023-08-01T06:47:32;99011.00;;;18.40
11849;BMP180;5983;49.966;8.052;2023-08-01T06:49:59;99021.00;;;18.40
11849;BMP180;5983;49.966;8.052;2023-08-01T06:52:26;99018.00;;;18.40
11849;BMP180;5983;49.966;8.052;2023-08-01T06:54:53;99022.00;;;18.50
11849;BMP180;5983;49.966;8.052;2023-08-01T06:57:19;99020.00;;;18.60
11849;BMP180;5983;49.966;8.052;2023-08-01T06:59:46;99029.00;;;18.60
11849;BMP180;5983;49.966;8.052;2023-08-01T07:02:14;99029.00;;;18.60
11849;BMP180;5983;49.966;8.052;2023-08-01T07:04:41;99037.00;;;18.70
11849;BMP180;5983;49.966;8.052;2023-08-01T07:07:09;99035.00;;;18.70
11849;BMP180;5983;49.966;8.052;2023-08-01T07:09:36;99032.00;;;18.60
11849;BMP180;5983;49.966;8.052;2023-08-01T07:12:04;99030.00;;;18.60
11849;BMP180;5983;49.966;8.052;2023-08-01T07:14:31;99029.00;;;18.60
11849;BMP180;5983;49.966;8.052;2023-08-01T07:16:58;99031.00;;;18.60
11849;BMP180;5983;49.966;8.052;2023-08-01T07:19:26;99027.00;;;18.60
11849;BMP180;5983;49.966;8.052;2023-08-01T07:21:52;99031.00;;;18.60
11849;BMP180;5983;49.966;8.052;2023-08-01T07:24:19;99039.00;;;18.70
11849;BMP180;5983;49.966;8.052;2023-08-01T07:26:46;99034.00;;;18.90
11849;BMP180;5983;49.966;8.052;2023-08-01T07:29:13;99047.00;;;19.20
11849;BMP180;5983;49.966;8.052;2023-08-01T07:31:41;99039.00;;;19.50
11849;BMP180;5983;49.966;8.052;2023-08-01T07:34:08;99036.00;;;19.90
11849;BMP180;5983;49.966;8.052;2023-08-01T07:36:36;99047.00;;;20.20
11849;BMP180;5983;49.966;8.052;2023-08-01T07:39:03;99051.00;;;20.40
11849;BMP180;5983;49.966;8.052;2023-08-01T07:41:30;99050.00;;;20.50
11849;BMP180;5983;49.966;8.052;2023-08-01T07:43:58;99043.00;;;20.70
11849;BMP180;5983;49.966;8.052;2023-08-01T07:46:25;99049.00;;;20.80
11849;BMP180;5983;49.966;8.052;2023-08-01T07:48:52;99051.00;;;21.00
11849;BMP180;5983;49.966;8.052;2023-08-01T07:51:19;99059.00;;;21.10
11849;BMP180;5983;49.966;8.052;2023-08-01T07:53:47;99056.00;;;21.30
11849;BMP180;5983;49.966;8.052;2023-08-01T07:56:14;99062.00;;;21.50
11849;BMP180;5983;49.966;8.052;2023-08-01T07:58:41;99068.00;;;21.60
11849;BMP180;5983;49.966;8.052;2023-08-01T08:01:08;99073.00;;;21.70
11849;BMP180;5983;49.966;8.052;2023-08-01T08:03:35;99073.00;;;21.80
11849;BMP180;5983;49.966;8.052;2023-08-01T08:06:01;99074.00;;;22.00
11849;BMP180;5983;49.966;8.052;2023-08-01T08:08:29;99077.00;;;22.00
11849;BMP180;5983;49.966;8.052;2023-08-01T08:10:59;99074.00;;;22.10
11849;BMP180;5983;49.966;8.052;2023-08-01T08:13:26;99084.00;;;22.30
11849;BMP180;5983;49.966;8.052;2023-08-01T08:15:55;99081.00;;;22.40
11849;BMP180;5983;49.966;8.052;2023-08-01T08:18:22;99090.00;;;22.40
11849;BMP180;5983;49.966;8.052;2023-08-01T08:20:49;99093.00;;;22.40
11849;BMP180;5983;49.966;8.052;2023-08-01T08:23:16;99088.00;;;22.40
11849;BMP180;5983;49.966;8.052;2023-08-01T08:25:43;99105.00;;;22.40
11849;BMP180;5983;49.966;8.052;2023-08-01T08:28:13;99101.00;;;22.60
11849;BMP180;5983;49.966;8.052;2023-08-01T08:30:40;99108.00;;;22.70
11849;BMP180;5983;49.966;8.052;2023-08-01T08:33:07;99100.00;;;22.80
11849;BMP180;5983;49.966;8.052;2023-08-01T08:35:36;99111.00;;;23.00
11849;BMP180;5983;49.966;8.052;2023-08-01T08:38:03;99112.00;;;23.20
11849;BMP180;5983;49.966;8.052;2023-08-01T08:40:31;99106.00;;;23.30
11849;BMP180;5983;49.966;8.052;2023-08-01T08:43:00;99112.00;;;23.40
11849;BMP180;5983;49.966;8.052;2023-08-01T08:45:32;99106.00;;;23.50
11849;BMP180;5983;49.966;8.052;2023-08-01T08:48:01;99125.00;;;23.30
11849;BMP180;5983;49.966;8.052;2023-08-01T08:50:30;99111.00;;;23.00
11849;BMP180;5983;49.966;8.052;2023-08-01T08:52:57;99113.00;;;22.60
11849;BMP180;5983;49.966;8.052;2023-08-01T08:55:24;99121.00;;;22.60
11849;BMP180;5983;49.966;8.052;2023-08-01T08:57:53;99112.00;;;22.70
11849;BMP180;5983;49.966;8.052;2023-08-01T09:00:20;99118.00;;;22.90
11849;BMP180;5983;49.966;8.052;2023-08-01T09:02:49;99123.00;;;23.10
11849;BMP180;5983;49.966;8.052;2023-08-01T09:05:16;99130.00;;;23.20
11849;BMP180;5983;49.966;8.052;2023-08-01T09:07:46;99124.00;;;23.40
11849;BMP180;5983;49.966;8.052;2023-08-01T09:10:14;99120.00;;;23.70
11849;BMP180;5983;49.966;8.052;2023-08-01T09:12:41;99120.00;;;23.90
11849;BMP180;5983;49.966;8.052;2023-08-01T09:15:10;99121.00;;;24.00
11849;BMP180;5983;49.966;8.052;2023-08-01T09:17:49;99122.00;;;23.90
11849;BMP180;5983;49.966;8.052;2023-08-01T09:20:15;99126.00;;;24.00
11849;BMP180;5983;49.966;8.052;2023-08-01T09:22:43;99126.00;;;24.10
11849;BMP180;5983;49.966;8.052;2023-08-01T09:25:10;99124.00;;;23.90
11849;BMP180;5983;49.966;8.052;2023-08-01T09:27:37;99132.00;;;23.60
11849;BMP180;5983;49.966;8.052;2023-08-01T09:30:06;99132.00;;;23.40
11849;BMP180;5983;49.966;8.052;2023-08-01T09:32:33;99147.00;;;23.40
11849;BMP180;5983;49.966;8.052;2023-08-01T09:35:01;99144.00;;;23.60
11849;BMP180;5983;49.966;8.052;2023-08-01T09:37:38;99134.00;;;23.90
11849;BMP180;5983;49.966;8.052;2023-08-01T09:40:06;99131.00;;;24.10
11849;BMP180;5983;49.966;8.052;2023-08-01T09:42:37;99139.00;;;24.10
11849;BMP180;5983;49.966;8.052;2023-08-01T09:45:11;99143.00;;;24.30
11849;BMP180;5983;49.966;8.052;2023-08-01T09:47:37;99145.00;;;24.50
11849;BMP180;5983;49.966;8.052;2023-08-01T09:50:06;99154.00;;;24.40
11849;BMP180;5983;49.966;8.052;2023-08-01T09:52:33;99147.00;;;24.40
11849;BMP180;5983;49.966;8.052;2023-08-01T09:55:00;99151.00;;;24.60
11849;BMP180;5983;49.966;8.052;2023-08-01T09:57:29;99157.00;;;24.40
11849;BMP180;5983;49.966;8.052;2023-08-01T09:59:57;99155.00;;;24.30
11849;BMP180;5983;49.966;8.052;2023-08-01T10:02:24;99159.00;;;24.20
11849;BMP180;5983;49.966;8.052;2023-08-01T10:04:52;99158.00;;;24.10
11849;BMP180;5983;49.966;8.052;2023-08-01T10:07:24;99161.00;;;24.00
11849;BMP180;5983;49.966;8.052;2023-08-01T10:09:53;99168.00;;;24.00
11849;BMP180;5983;49.966;8.052;2023-08-01T10:12:22;99160.00;;;24.10
11849;BMP180;5983;49.966;8.052;2023-08-01T10:14:50;99167.00;;;24.20
11849;BMP180;5983;49.966;8.052;2023-08-01T10:17:17;99163.00;;;24.50
11849;BMP180;5983;49.966;8.052;2023-08-01T10:19:45;99164.00;;;24.80
11849;BMP180;5983;49.966;8.052;2023-08-01T10:22:13;99176.00;;;25.00
11849;BMP180;5983;49.966;8.052;2023-08-01T10:24:43;99162.00;;;25.00
11849;BMP180;5983;49.966;8.052;2023-08-01T10:27:14;99179.00;;;24.70
11849;BMP180;5983;49.966;8.052;2023-08-01T10:29:42;99177.00;;;24.60
11849;BMP180;5983;49.966;8.052;2023-08-01T10:32:09;99181.00;;;24.70
11849;BMP180;5983;49.966;8.052;2023-08-01T10:34:36;99171.00;;;24.70
11849;BMP180;5983;49.966;8.052;2023-08-01T10:37:03;99182.00;;;24.70
11849;BMP180;5983;49.966;8.052;2023-08-01T10:39:30;99179.00;;;24.80
11849;BMP180;5983;49.966;8.052;2023-08-01T10:41:59;99184.00;;;24.90
11849;BMP180;5983;49.966;8.052;2023-08-01T10:44:26;99181.00;;;25.10
11849;BMP180;5983;49.966;8.052;2023-08-01T10:46:55;99185.00;;;25.30
11849;BMP180;5983;49.966;8.052;2023-08-01T10:49:33;99184.00;;;25.50
11849;BMP180;5983;49.966;8.052;2023-08-01T10:52:01;99178.00;;;25.60
11849;BMP180;5983;49.966;8.052;2023-08-01T10:54:27;99187.00;;;25.60
11849;BMP180;5983;49.966;8.052;2023-08-01T10:56:56;99181.00;;;25.60
11849;BMP180;5983;49.966;8.052;2023-08-01T10:59:25;99185.00;;;25.60
11849;BMP180;5983;49.966;8.052;2023-08-01T11:01:52;99191.00;;;25.50
11849;BMP180;5983;49.966;8.052;2023-08-01T11:04:20;99196.00;;;25.50
11849;BMP180;5983;49.966;8.052;2023-08-01T11:06:49;99191.00;;;25.60
11849;BMP180;5983;49.966;8.052;2023-08-01T11:09:17;99200.00;;;25.60
11849;BMP180;5983;49.966;8.052;2023-08-01T11:11:47;99196.00;;;25.60
11849;BMP180;5983;49.966;8.052;2023-08-01T11:14:14;99199.00;;;25.50
11849;BMP180;5983;49.966;8.052;2023-08-01T11:16:43;99202.00;;;25.30
11849;BMP180;5983;49.966;8.052;2023-08-01T11:19:20;99205.00;;;25.20
11849;BMP180;5983;49.966;8.052;2023-08-01T11:21:48;99208.00;;;25.20
11849;BMP180;5983;49.966;8.052;2023-08-01T11:24:16;99210.00;;;25.10
11849;BMP180;5983;49.966;8.052;2023-08-01T11:26:43;99203.00;;;25.00
11849;BMP180;5983;49.966;8.052;2023-08-01T11:29:11;99206.00;;;25.00
11849;BMP180;5983;49.966;8.052;2023-08-01T11:31:38;99213.00;;;25.00
11849;BMP180;5983;49.966;8.052;2023-08-01T11:34:08;99215.00;;;25.00
11849;BMP180;5983;49.966;8.052;2023-08-01T11:36:35;99211.00;;;25.10
11849;BMP180;5983;49.966;8.052;2023-08-01T11:39:04;99206.00;;;25.30
11849;BMP180;5983;49.966;8.052;2023-08-01T11:41:31;99209.00;;;25.30
11849;BMP180;5983;49.966;8.052;2023-08-01T11:44:01;99217.00;;;25.40
11849;BMP180;5983;49.966;8.052;2023-08-01T11:46:31;99223.00;;;25.40
11849;BMP180;5983;49.966;8.052;2023-08-01T11:48:58;99218.00;;;25.20
11849;BMP180;5983;49.966;8.052;2023-08-01T11:51:26;99231.00;;;25.20
11849;BMP180;5983;49.966;8.052;2023-08-01T11:54:00;99248.00;;;25.30
11849;BMP180;5983;49.966;8.052;2023-08-01T11:56:27;99236.00;;;25.30
11849;BMP180;5983;49.966;8.052;2023-08-01T11:58:54;99225.00;;;25.40
11849;BMP180;5983;49.966;8.052;2023-08-01T12:01:20;99224.00;;;25.50
11849;BMP180;5983;49.966;8.052;2023-08-01T12:03:49;99217.00;;;25.50
11849;BMP180;5983;49.966;8.052;2023-08-01T12:06:16;99236.00;;;25.50
11849;BMP180;5983;49.966;8.052;2023-08-01T12:08:46;99230.00;;;25.50
11849;BMP180;5983;49.966;8.052;2023-08-01T12:11:20;99223.00;;;25.60
11849;BMP180;5983;49.966;8.052;2023-08-01T12:13:48;99226.00;;;25.60
11849;BMP180;5983;49.966;8.052;2023-08-01T12:16:15;99215.00;;;25.80
11849;BMP180;5983;49.966;8.052;2023-08-01T12:18:45;99219.00;;;25.80
11849;BMP180;5983;49.966;8.052;2023-08-01T12:21:13;99222.00;;;25.80
11849;BMP180;5983;49.966;8.052;2023-08-01T12:23:40;99230.00;;;25.80
11849;BMP180;5983;49.966;8.052;2023-08-01T12:26:08;99219.00;;;25.90
11849;BMP180;5983;49.966;8.052;2023-08-01T12:28:35;99222.00;;;26.00
11849;BMP180;5983;49.966;8.052;2023-08-01T12:31:02;99221.00;;;25.80
11849;BMP180;5983;49.966;8.052;2023-08-01T12:33:29;99225.00;;;25.60
11849;BMP180;5983;49.966;8.052;2023-08-01T12:35:56;99225.00;;;25.40
11849;BMP180;5983;49.966;8.052;2023-08-01T12:38:23;99226.00;;;25.40
11849;BMP180;5983;49.966;8.052;2023-08-01T12:40:50;99215.00;;;25.40
11849;BMP180;5983;49.966;8.052;2023-08-01T12:43:18;99218.00;;;25.60
11849;BMP180;5983;49.966;8.052;2023-08-01T12:45:46;99213.00;;;25.60
11849;BMP180;5983;49.966;8.052;2023-08-01T12:48:13;99202.00;;;25.60
11849;BMP180;5983;49.966;8.052;2023-08-01T12:50:43;99208.00;;;25.60
11849;BMP180;5983;49.966;8.052;2023-08-01T12:53:10;99208.00;;;25.50
11849;BMP180;5983;49.966;8.052;2023-08-01T12:55:37;99223.00;;;25.30
11849;BMP180;5983;49.966;8.052;2023-08-01T12:58:04;99214.00;;;25.30
11849;BMP180;5983;49.966;8.052;2023-08-01T13:00:32;99205.00;;;25.20
11849;BMP180;5983;49.966;8.052;2023-08-01T13:02:58;99217.00;;;25.10
11849;BMP180;5983;49.966;8.052;2023-08-01T13:05:25;99217.00;;;25.10
11849;BMP180;5983;49.966;8.052;2023-08-01T13:07:52;99229.00;;;25.00
11849;BMP180;5983;49.966;8.052;2023-08-01T13:10:18;99229.00;;;25.00
11849;BMP180;5983;49.966;8.052;2023-08-01T13:12:45;99234.00;;;24.80
11849;BMP180;5983;49.966;8.052;2023-08-01T13:15:12;99228.00;;;24.60
11849;BMP180;5983;49.966;8.052;2023-08-01T13:17:40;99232.00;;;24.40
11849;BMP180;5983;49.966;8.052;2023-08-01T13:20:07;99233.00;;;24.40
11849;BMP180;5983;49.966;8.052;2023-08-01T13:22:34;99231.00;;;24.30
11849;BMP180;5983;49.966;8.052;2023-08-01T13:25:01;99231.00;;;24.30
11849;BMP180;5983;49.966;8.052;2023-08-01T13:27:29;99247.00;;;24.10
11849;BMP180;5983;49.966;8.052;2023-08-01T13:29:56;99260.00;;;23.90
11849;BMP180;5983;49.966;8.052;2023-08-01T13:32:22;99276.00;;;23.60
11849;BMP180;5983;49.966;8.052;2023-08-01T13:34:51;99291.00;;;23.30
11849;BMP180;5983;49.966;8.052;2023-08-01T13:37:18;99293.00;;;23.00
11849;BMP180;5983;49.966;8.052;2023-08-01T13:39:44;99289.00;;;22.80
11849;BMP180;5983;49.966;8.052;2023-08-01T13:42:12;99298.00;;;22.70
11849;BMP180;5983;49.966;8.052;2023-08-01T13:44:40;99288.00;;;22.80
11849;BMP180;5983;49.966;8.052;2023-08-01T13:47:06;99293.00;;;22.80
11849;BMP180;5983;49.966;8.052;2023-08-01T13:49:33;99294.00;;;22.90
11849;BMP180;5983;49.966;8.052;2023-08-01T13:52:03;99295.00;;;22.90
11849;BMP180;5983;49.966;8.052;2023-08-01T13:54:30;99317.00;;;22.80
11849;BMP180;5983;49.966;8.052;2023-08-01T13:56:57;99330.00;;;22.60
11849;BMP180;5983;49.966;8.052;2023-08-01T13:59:24;99330.00;;;22.40
11849;BMP180;5983;49.966;8.052;2023-08-01T14:01:52;99334.00;;;22.20
11849;BMP180;5983;49.966;8.052;2023-08-01T14:04:20;99327.00;;;22.20
11849;BMP180;5983;49.966;8.052;2023-08-01T14:06:47;99326.00;;;22.10
11849;BMP180;5983;49.966;8.052;2023-08-01T14:09:15;99340.00;;;22.00
11849;BMP180;5983;49.966;8.052;2023-08-01T14:11:42;99328.00;;;22.10
11849;BMP180;5983;49.966;8.052;2023-08-01T14:14:09;99327.00;;;22.10
11849;BMP180;5983;49.966;8.052;2023-08-01T14:16:35;99337.00;;;22.00
11849;BMP180;5983;49.966;8.052;2023-08-01T14:19:02;99334.00;;;22.00
11849;BMP180;5983;49.966;8.052;2023-08-01T14:21:29;99339.00;;;22.10
11849;BMP180;5983;49.966;8.052;2023-08-01T14:23:56;99336.00;;;22.20